createdAt,value
2022-12-04T00:01:19.630Z,12.13
2022-12-04T00:03:46.817Z,12.00
2022-12-04T00:06:16.861Z,11.57
2022-12-04T00:08:45.020Z,11.73
2022-12-04T00:11:13.531Z,11.27
2022-12-04T00:13:40.718Z,10.48
2022-12-04T00:16:09.411Z,11.50
2022-12-04T00:18:36.409Z,11.05
2022-12-04T00:21:05.574Z,11.98
2022-12-04T00:23:33.658Z,11.50
2022-12-04T00:26:02.588Z,11.23
2022-12-04T00:28:29.581Z,12.30
2022-12-04T00:30:56.791Z,13.10
2022-12-04T00:33:24.041Z,11.50
2022-12-04T00:35:58.995Z,10.48
2022-12-04T00:38:27.005Z,12.77
2022-12-04T00:40:54.751Z,12.80
2022-12-04T00:43:23.226Z,11.98
2022-12-04T00:45:50.735Z,12.32
2022-12-04T00:48:17.969Z,11.95
2022-12-04T00:50:45.181Z,11.30
2022-12-04T00:53:13.112Z,11.27
2022-12-04T00:55:41.342Z,11.68
2022-12-04T00:58:09.160Z,13.73
2022-12-04T01:00:39.188Z,12.63
2022-12-04T01:03:07.550Z,11.65
2022-12-04T01:05:43.377Z,10.57
2022-12-04T01:10:42.434Z,10.93
2022-12-04T01:13:09.616Z,11.32
2022-12-04T01:15:41.153Z,10.68
2022-12-04T01:18:08.228Z,10.65
2022-12-04T01:20:35.265Z,10.65
2022-12-04T01:23:02.681Z,10.13
2022-12-04T01:25:29.749Z,10.07
2022-12-04T01:27:56.996Z,11.90
2022-12-04T01:30:24.037Z,10.60
2022-12-04T01:32:51.012Z,9.68
2022-12-04T01:35:18.300Z,9.95
2022-12-04T01:37:45.365Z,10.35
2022-12-04T01:40:17.031Z,9.98
2022-12-04T01:42:44.164Z,9.57
2022-12-04T01:46:05.638Z,10.15
2022-12-04T01:48:32.631Z,11.15
2022-12-04T01:51:13.912Z,10.77
2022-12-04T01:53:44.199Z,10.80
2022-12-04T01:56:11.498Z,10.27
2022-12-04T01:58:42.283Z,10.52
2022-12-04T02:01:10.037Z,10.68
2022-12-04T02:03:39.047Z,11.00
2022-12-04T02:06:06.971Z,10.38
2022-12-04T02:08:35.909Z,9.88
2022-12-04T02:11:23.201Z,10.30
2022-12-04T02:13:52.875Z,10.85
2022-12-04T02:16:52.433Z,9.75
2022-12-04T02:20:00.501Z,10.13
2022-12-04T02:23:05.318Z,10.18
2022-12-04T02:25:50.857Z,10.55
2022-12-04T02:28:26.002Z,10.27
2022-12-04T02:30:57.622Z,11.43
2022-12-04T02:33:34.253Z,11.07
2022-12-04T02:36:05.103Z,11.75
2022-12-04T02:38:45.927Z,11.13
2022-12-04T02:41:48.856Z,11.18
2022-12-04T02:44:39.367Z,10.90
2022-12-04T02:47:10.941Z,10.13
2022-12-04T02:49:44.431Z,10.77
2022-12-04T02:52:16.991Z,10.38
2022-12-04T02:54:49.593Z,10.82
2022-12-04T02:57:22.230Z,9.40
2022-12-04T02:59:52.218Z,9.38
2022-12-04T03:03:00.969Z,9.43
2022-12-04T03:05:39.116Z,8.73
2022-12-04T03:08:11.649Z,9.13
2022-12-04T03:10:44.200Z,8.75
2022-12-04T03:13:18.658Z,9.45
2022-12-04T03:15:49.429Z,10.00
2022-12-04T03:18:22.490Z,8.27
2022-12-04T03:20:55.105Z,9.15
2022-12-04T03:23:33.301Z,9.07
2022-12-04T03:26:08.140Z,9.35
2022-12-04T03:28:40.579Z,8.50
2022-12-04T03:31:10.992Z,9.65
2022-12-04T03:33:45.503Z,8.98
2022-12-04T03:36:28.379Z,8.45
2022-12-04T03:38:58.980Z,7.50
2022-12-04T03:41:49.975Z,8.20
2022-12-04T03:44:32.013Z,8.00
2022-12-04T03:47:09.886Z,7.53
2022-12-04T03:49:42.694Z,7.10
2022-12-04T03:52:13.037Z,7.68
2022-12-04T03:55:02.940Z,7.00
2022-12-04T03:57:34.457Z,7.90
2022-12-04T04:00:12.948Z,6.63
2022-12-04T04:02:46.756Z,6.40
2022-12-04T04:05:15.375Z,6.68
2022-12-04T04:07:51.512Z,6.35
2022-12-04T04:10:24.973Z,6.95
2022-12-04T04:13:15.796Z,6.25
2022-12-04T04:16:09.286Z,5.88
2022-12-04T04:18:54.991Z,6.18
2022-12-04T04:21:46.021Z,5.97
2022-12-04T04:24:27.200Z,6.03
2022-12-04T04:26:58.076Z,5.50
2022-12-04T04:29:25.715Z,5.10
2022-12-04T04:32:29.038Z,5.47
2022-12-04T04:35:14.830Z,6.18
2022-12-04T04:38:09.863Z,5.28
2022-12-04T04:40:48.310Z,5.35
2022-12-04T04:43:48.824Z,4.90
2022-12-04T04:46:35.282Z,4.78
2022-12-04T04:49:06.089Z,4.65
2022-12-04T04:51:35.019Z,4.45
2022-12-04T04:54:06.408Z,4.32
2022-12-04T04:56:41.003Z,4.55
2022-12-04T04:59:08.213Z,4.28
2022-12-04T05:01:36.534Z,3.70
2022-12-04T05:04:05.001Z,4.25
2022-12-04T05:06:32.107Z,3.35
2022-12-04T05:08:59.102Z,2.60
2022-12-04T05:11:26.438Z,3.13
2022-12-04T05:13:53.408Z,3.10
2022-12-04T05:16:20.536Z,2.83
2022-12-04T05:19:06.269Z,3.00
2022-12-04T05:21:34.256Z,2.75
2022-12-04T05:24:01.859Z,2.45
2022-12-04T05:26:28.851Z,2.50
2022-12-04T05:28:55.743Z,2.25
2022-12-04T05:31:22.825Z,2.20
2022-12-04T05:33:49.896Z,1.90
2022-12-04T05:36:16.937Z,1.92
2022-12-04T05:38:43.935Z,1.83
2022-12-04T05:41:10.958Z,1.40
2022-12-04T05:43:38.295Z,1.50
2022-12-04T05:46:07.497Z,1.20
2022-12-04T05:48:35.629Z,1.42
2022-12-04T05:51:07.560Z,5.75
2022-12-04T05:53:34.837Z,2.83
2022-12-04T05:56:03.417Z,1.35
2022-12-04T05:58:30.700Z,1.90
2022-12-04T06:00:57.590Z,1.80
2022-12-04T06:03:24.681Z,1.88
2022-12-04T06:05:51.788Z,3.25
2022-12-04T06:08:18.791Z,2.13
2022-12-04T06:10:45.900Z,2.70
2022-12-04T06:13:12.863Z,2.38
2022-12-04T06:15:40.604Z,1.90
2022-12-04T06:18:07.785Z,1.63
2022-12-04T06:20:35.210Z,1.83
2022-12-04T06:23:02.642Z,1.70
2022-12-04T06:25:29.703Z,2.15
2022-12-04T06:27:56.726Z,2.03
2022-12-04T06:30:23.696Z,2.30
2022-12-04T06:32:50.643Z,2.10
2022-12-04T06:35:17.802Z,2.15
2022-12-04T06:37:44.825Z,2.10
2022-12-04T06:40:11.989Z,2.17
2022-12-04T06:42:39.109Z,2.17
2022-12-04T06:45:06.689Z,3.10
2022-12-04T06:47:36.012Z,3.10
2022-12-04T06:50:04.383Z,3.70
2022-12-04T06:52:33.717Z,3.60
2022-12-04T06:55:00.796Z,2.63
2022-12-04T06:57:27.818Z,4.57
2022-12-04T06:59:55.142Z,3.75
2022-12-04T07:02:22.879Z,2.83
2022-12-04T07:04:49.872Z,3.70
2022-12-04T07:07:16.772Z,5.22
2022-12-04T07:09:44.292Z,3.67
2022-12-04T07:12:11.270Z,3.28
2022-12-04T07:14:38.339Z,2.90
2022-12-04T07:17:05.357Z,2.38
2022-12-04T07:19:32.352Z,2.13
2022-12-04T07:21:59.296Z,2.40
2022-12-04T07:24:26.540Z,2.42
2022-12-04T07:26:53.486Z,2.92
2022-12-04T07:29:20.433Z,2.10
2022-12-04T07:31:47.479Z,2.40
2022-12-04T07:34:14.514Z,2.67
2022-12-04T07:36:41.573Z,2.25
2022-12-04T07:39:08.653Z,2.40
2022-12-04T07:41:35.795Z,2.95
2022-12-04T07:44:07.052Z,2.45
2022-12-04T07:46:34.169Z,3.17
2022-12-04T07:49:01.236Z,3.80
2022-12-04T07:51:29.498Z,3.10
2022-12-04T07:54:03.629Z,2.60
2022-12-04T07:56:31.838Z,2.50
2022-12-04T07:59:00.228Z,2.72
2022-12-04T08:01:27.639Z,2.58
2022-12-04T08:03:56.444Z,2.53
2022-12-04T08:06:24.947Z,2.97
2022-12-04T08:08:52.676Z,2.25
2022-12-04T08:11:22.625Z,2.90
2022-12-04T08:13:57.475Z,2.60
2022-12-04T08:16:25.415Z,3.15
2022-12-04T08:18:53.884Z,3.10
2022-12-04T08:21:23.047Z,3.05
2022-12-04T08:23:52.370Z,2.55
2022-12-04T08:26:21.464Z,3.65
2022-12-04T08:28:48.893Z,4.10
2022-12-04T08:31:22.075Z,4.15
2022-12-04T08:33:50.906Z,3.88
2022-12-04T08:36:19.990Z,3.97
2022-12-04T08:38:48.847Z,3.80
2022-12-04T08:41:18.484Z,3.58
2022-12-04T08:43:45.641Z,4.07
2022-12-04T08:46:16.350Z,3.70
2022-12-04T08:48:44.189Z,3.60
2022-12-04T08:51:20.012Z,3.90
2022-12-04T08:56:14.265Z,18.52
2022-12-04T08:58:41.341Z,16.58
2022-12-04T09:01:11.214Z,11.70
2022-12-04T09:03:39.100Z,4.38
2022-12-04T09:06:07.192Z,4.13
2022-12-04T09:08:35.304Z,4.05
2022-12-04T09:11:07.224Z,4.50
2022-12-04T09:13:35.640Z,4.28
2022-12-04T09:16:08.589Z,4.80
2022-12-04T09:18:36.872Z,4.63
2022-12-04T09:21:10.880Z,4.40
2022-12-04T09:23:39.048Z,4.35
2022-12-04T09:26:15.897Z,4.63
2022-12-04T09:28:43.312Z,4.68
2022-12-04T09:31:10.476Z,7.05
2022-12-04T09:33:37.496Z,5.95
2022-12-04T09:36:05.073Z,5.60
2022-12-04T09:38:32.273Z,4.90
2022-12-04T09:41:24.599Z,4.70
2022-12-04T09:44:41.582Z,5.35
2022-12-04T09:47:22.219Z,5.22
2022-12-04T09:50:04.782Z,4.00
2022-12-04T09:52:44.544Z,4.05
2022-12-04T09:55:18.252Z,3.90
2022-12-04T09:57:48.808Z,3.72
2022-12-04T10:00:18.337Z,4.22
2022-12-04T10:02:55.057Z,3.38
2022-12-04T10:05:44.235Z,4.25
2022-12-04T10:08:29.081Z,3.85
2022-12-04T10:11:10.003Z,4.05
2022-12-04T10:14:09.354Z,3.80
2022-12-04T10:16:51.042Z,4.53
2022-12-04T10:19:24.063Z,5.25
2022-12-04T10:22:19.036Z,4.47
2022-12-04T10:24:51.421Z,4.75
2022-12-04T10:27:29.223Z,4.55
2022-12-04T10:30:02.353Z,4.60
2022-12-04T10:32:32.852Z,5.35
2022-12-04T10:35:22.887Z,4.70
2022-12-04T10:38:23.268Z,4.53
2022-12-04T10:41:18.033Z,4.03
2022-12-04T10:43:49.765Z,5.00
2022-12-04T10:46:23.627Z,5.13
2022-12-04T10:49:01.109Z,5.18
2022-12-04T10:51:35.558Z,4.75
2022-12-04T10:54:02.490Z,5.20
2022-12-04T10:56:29.473Z,4.97
2022-12-04T10:59:02.411Z,4.80
2022-12-04T11:01:32.257Z,4.88
2022-12-04T11:04:06.179Z,4.53
2022-12-04T11:06:33.373Z,5.53
2022-12-04T11:09:02.078Z,5.82
2022-12-04T11:11:34.937Z,5.85
2022-12-04T11:14:05.964Z,4.78
2022-12-04T11:16:34.984Z,5.15
2022-12-04T11:19:02.140Z,5.00
2022-12-04T11:21:32.138Z,5.00
2022-12-04T11:23:59.440Z,6.03
2022-12-04T11:26:32.545Z,7.50
2022-12-04T11:29:01.684Z,6.13
2022-12-04T11:31:29.602Z,6.45
2022-12-04T11:34:01.840Z,6.15
2022-12-04T11:36:35.153Z,5.78
2022-12-04T11:39:20.433Z,5.07
2022-12-04T11:41:47.652Z,6.63
2022-12-04T11:44:30.504Z,6.43
2022-12-04T11:47:01.956Z,7.97
2022-12-04T11:49:30.998Z,6.75
2022-12-04T11:52:22.293Z,7.22
2022-12-04T11:54:58.184Z,7.63
2022-12-04T11:57:30.852Z,6.80
2022-12-04T12:00:20.734Z,7.22
2022-12-04T12:03:03.377Z,7.55
2022-12-04T12:05:49.137Z,7.40
2022-12-04T12:08:34.985Z,7.93
2022-12-04T12:11:10.821Z,7.32
2022-12-04T12:13:46.579Z,7.40
2022-12-04T12:16:31.725Z,8.02
2022-12-04T12:19:08.548Z,7.85
2022-12-04T12:21:53.433Z,8.27
2022-12-04T12:24:20.509Z,7.20
2022-12-04T12:27:26.179Z,8.13
2022-12-04T12:30:11.681Z,8.20
2022-12-04T12:33:08.679Z,8.35
2022-12-04T12:35:47.835Z,7.75
2022-12-04T12:38:25.213Z,8.10
2022-12-04T12:41:14.363Z,8.30
2022-12-04T12:43:48.625Z,7.80
2022-12-04T12:46:37.352Z,7.45
2022-12-04T12:49:22.935Z,7.85
2022-12-04T12:52:20.183Z,7.43
2022-12-04T12:55:04.156Z,8.05
2022-12-04T12:57:35.031Z,8.68
2022-12-04T13:00:13.883Z,8.80
2022-12-04T13:03:18.289Z,8.90
2022-12-04T13:05:48.857Z,9.40
2022-12-04T13:08:21.438Z,8.98
2022-12-04T13:11:01.397Z,9.60
2022-12-04T13:13:32.816Z,8.93
2022-12-04T13:16:12.254Z,9.35
2022-12-04T13:18:45.997Z,10.05
2022-12-04T13:21:31.996Z,9.60
2022-12-04T13:24:18.944Z,12.02
2022-12-04T13:27:01.044Z,10.30
2022-12-04T13:29:45.715Z,10.15
2022-12-04T13:32:37.232Z,10.07
2022-12-04T13:35:40.789Z,9.85
2022-12-04T13:38:14.182Z,9.98
2022-12-04T13:40:56.773Z,11.63
2022-12-04T13:43:41.868Z,10.55
2022-12-04T13:46:30.450Z,11.43
2022-12-04T13:49:27.946Z,10.93
2022-12-04T13:51:56.992Z,8.98
2022-12-04T13:54:37.827Z,9.65
2022-12-04T13:57:22.236Z,9.05
2022-12-04T13:59:50.011Z,8.95
2022-12-04T14:02:35.957Z,10.13
2022-12-04T14:05:05.460Z,9.57
2022-12-04T14:07:42.500Z,9.82
2022-12-04T14:10:15.427Z,9.90
2022-12-04T14:12:49.883Z,10.18
2022-12-04T14:15:28.742Z,9.27
2022-12-04T14:18:05.017Z,9.45
2022-12-04T14:20:34.169Z,10.30
2022-12-04T14:23:33.895Z,9.93
2022-12-04T14:26:03.153Z,9.45
2022-12-04T14:28:38.699Z,9.88
2022-12-04T14:31:08.516Z,10.35
2022-12-04T14:33:42.702Z,9.90
2022-12-04T14:36:16.936Z,9.90
2022-12-04T14:38:47.399Z,10.88
2022-12-04T14:41:14.544Z,10.98
2022-12-04T14:43:45.117Z,10.60
2022-12-04T14:46:17.947Z,11.55
2022-12-04T14:49:10.572Z,11.27
2022-12-04T14:51:45.454Z,10.98
2022-12-04T14:54:18.647Z,11.17
2022-12-04T14:57:19.672Z,10.57
2022-12-04T14:59:52.633Z,10.18
2022-12-04T15:02:40.421Z,10.68
2022-12-04T15:05:15.657Z,10.07
2022-12-04T15:07:49.985Z,11.15
2022-12-04T15:10:47.665Z,10.60
2022-12-04T15:13:32.684Z,11.43
2022-12-04T15:16:10.750Z,10.13
2022-12-04T15:18:39.722Z,9.65
2022-12-04T15:21:10.452Z,11.13
2022-12-04T15:23:41.474Z,11.00
2022-12-04T15:26:14.838Z,10.82
2022-12-04T15:28:52.803Z,10.73
2022-12-04T15:31:27.214Z,10.32
2022-12-04T15:33:58.812Z,9.48
2022-12-04T15:36:56.495Z,10.38
2022-12-04T15:39:26.716Z,10.77
2022-12-04T15:42:15.397Z,9.85
2022-12-04T15:45:03.331Z,9.75
2022-12-04T15:47:53.772Z,9.30
2022-12-04T15:50:23.314Z,10.27
2022-12-04T15:53:00.872Z,9.88
2022-12-04T15:55:30.575Z,9.80
2022-12-04T15:58:00.975Z,10.27
2022-12-04T16:00:32.668Z,10.38
2022-12-04T16:03:01.024Z,10.52
2022-12-04T16:05:36.500Z,10.60
2022-12-04T16:08:32.769Z,10.20
2022-12-04T16:11:18.568Z,9.82
2022-12-04T16:13:46.700Z,10.13
2022-12-04T16:16:21.403Z,10.65
2022-12-04T16:18:48.958Z,9.98
2022-12-04T16:21:18.956Z,9.75
2022-12-04T16:23:46.236Z,9.68
2022-12-04T16:26:14.687Z,9.65
2022-12-04T16:28:41.931Z,9.98
2022-12-04T16:31:13.458Z,9.90
2022-12-04T16:33:40.875Z,8.73
2022-12-04T16:36:12.943Z,9.57
2022-12-04T16:38:40.181Z,9.10
2022-12-04T16:41:13.313Z,9.68
2022-12-04T16:43:40.292Z,8.43
2022-12-04T16:46:13.901Z,8.80
2022-12-04T16:48:44.324Z,9.50
2022-12-04T16:51:17.776Z,9.88
2022-12-04T16:53:44.900Z,9.52
2022-12-04T16:56:12.205Z,9.77
2022-12-04T16:58:39.348Z,10.00
2022-12-04T17:01:28.406Z,10.00
2022-12-04T17:03:55.650Z,9.75
2022-12-04T17:06:22.593Z,8.73
2022-12-04T17:08:49.630Z,9.68
2022-12-04T17:11:17.879Z,10.20
2022-12-04T17:13:45.727Z,10.98
2022-12-04T17:16:15.182Z,10.15
2022-12-04T17:18:43.688Z,9.68
2022-12-04T17:21:12.537Z,10.20
2022-12-04T17:23:40.137Z,10.77
2022-12-04T17:26:13.297Z,10.45
2022-12-04T17:28:41.438Z,11.13
2022-12-04T17:31:25.564Z,10.18
2022-12-04T17:33:53.362Z,11.10
2022-12-04T17:36:23.078Z,9.13
2022-12-04T17:38:54.832Z,10.60
2022-12-04T17:41:21.852Z,9.93
2022-12-04T17:43:49.068Z,10.77
2022-12-04T17:46:20.505Z,9.77
2022-12-04T17:48:48.823Z,9.70
2022-12-04T17:51:21.742Z,10.85
2022-12-04T17:53:49.294Z,10.13
2022-12-04T17:56:19.628Z,10.80
2022-12-04T17:58:47.441Z,11.05
2022-12-04T18:01:20.132Z,10.25
2022-12-04T18:04:03.306Z,11.32
2022-12-04T18:06:32.832Z,9.35
2022-12-04T18:09:00.661Z,9.75
2022-12-04T18:11:29.488Z,10.73
2022-12-04T18:14:10.281Z,10.70
2022-12-04T18:16:42.096Z,10.75
2022-12-04T18:19:09.029Z,10.68
2022-12-04T18:21:36.089Z,9.48
2022-12-04T18:24:04.748Z,10.40
2022-12-04T18:26:43.679Z,10.40
2022-12-04T18:29:13.797Z,9.82
2022-12-04T18:31:41.264Z,10.05
2022-12-04T18:34:09.100Z,10.95
2022-12-04T18:36:38.832Z,11.48
2022-12-04T18:39:16.089Z,11.15
2022-12-04T18:41:44.741Z,11.18
2022-12-04T18:44:12.491Z,10.55
2022-12-04T18:46:48.693Z,10.55
2022-12-04T18:49:15.751Z,10.85
2022-12-04T18:51:50.100Z,10.77
2022-12-04T18:54:22.977Z,11.80
2022-12-04T18:56:50.538Z,11.45
2022-12-04T18:59:19.975Z,11.18
2022-12-04T19:01:49.782Z,10.77
2022-12-04T19:04:19.451Z,10.52
2022-12-04T19:06:53.835Z,9.50
2022-12-04T19:09:40.813Z,10.88
2022-12-04T19:12:11.685Z,10.90
2022-12-04T19:14:39.773Z,10.05
2022-12-04T19:17:07.029Z,9.93
2022-12-04T19:19:34.101Z,11.18
2022-12-04T19:22:02.046Z,10.40
2022-12-04T19:24:28.976Z,11.07
2022-12-04T19:26:56.118Z,11.57
2022-12-04T19:29:23.272Z,10.88
2022-12-04T19:31:52.454Z,11.40
2022-12-04T19:34:23.127Z,12.20
2022-12-04T19:36:51.272Z,11.35
2022-12-04T19:39:18.285Z,10.35
2022-12-04T19:41:47.243Z,10.93
2022-12-04T19:44:46.599Z,10.43
2022-12-04T19:47:01.280Z,12.30
2022-12-04T19:49:28.421Z,10.50
2022-12-04T19:51:55.460Z,11.25
2022-12-04T19:54:23.806Z,10.02
2022-12-04T19:56:52.487Z,11.38
2022-12-04T19:59:20.523Z,11.52
2022-12-04T20:01:48.196Z,11.98
2022-12-04T20:04:15.608Z,10.55
2022-12-04T20:06:46.057Z,12.10
2022-12-04T20:09:18.950Z,11.52
2022-12-04T20:11:46.327Z,11.75
2022-12-04T20:14:13.796Z,12.27
2022-12-04T20:16:41.290Z,12.27
2022-12-04T20:19:13.308Z,10.98
2022-12-04T20:21:40.386Z,12.57
2022-12-04T20:24:07.864Z,12.18
2022-12-04T20:26:38.361Z,11.63
2022-12-04T20:29:07.535Z,11.10
2022-12-04T20:31:38.056Z,10.50
2022-12-04T20:34:08.317Z,10.43
2022-12-04T20:36:42.761Z,10.82
2022-12-04T20:39:11.789Z,10.88
2022-12-04T20:41:39.212Z,11.80
2022-12-04T20:44:07.707Z,11.77
2022-12-04T20:46:37.780Z,11.32
2022-12-04T20:49:09.503Z,11.45
2022-12-04T20:51:39.599Z,11.10
2022-12-04T20:54:08.618Z,11.30
2022-12-04T20:56:37.024Z,10.90
2022-12-04T20:59:11.804Z,11.07
2022-12-04T21:01:39.497Z,11.60
2022-12-04T21:04:06.568Z,11.85
2022-12-04T21:06:36.129Z,11.40
2022-12-04T21:09:12.365Z,11.13
2022-12-04T21:11:45.235Z,10.88
2022-12-04T21:14:39.953Z,10.88
2022-12-04T21:17:09.596Z,11.15
2022-12-04T21:19:36.765Z,10.85
2022-12-04T21:22:03.830Z,11.07
2022-12-04T21:24:36.289Z,10.20
2022-12-04T21:27:03.377Z,11.27
2022-12-04T21:29:30.649Z,11.55
2022-12-04T21:31:57.681Z,11.15
2022-12-04T21:34:24.664Z,10.95
2022-12-04T21:36:51.669Z,10.93
2022-12-04T21:39:19.771Z,11.27
2022-12-04T21:42:25.384Z,11.75
2022-12-04T21:44:52.395Z,11.30
2022-12-04T21:47:19.513Z,11.55
2022-12-04T21:49:47.671Z,12.35
2022-12-04T21:52:18.567Z,12.57
2022-12-04T21:54:48.584Z,13.10
2022-12-04T21:57:15.642Z,12.73
2022-12-04T21:59:42.819Z,12.73
2022-12-04T22:02:15.121Z,12.80
2022-12-04T22:04:42.568Z,13.43
2022-12-04T22:07:10.178Z,12.20
2022-12-04T22:09:38.200Z,12.95
2022-12-04T22:12:26.332Z,13.23
2022-12-04T22:14:52.801Z,12.60
2022-12-04T22:17:19.747Z,12.10
2022-12-04T22:19:46.715Z,12.85
2022-12-04T22:22:13.676Z,12.98
2022-12-04T22:24:41.717Z,12.43
2022-12-04T22:27:14.780Z,11.80
2022-12-04T22:29:50.352Z,12.55
2022-12-04T22:32:18.106Z,11.57
2022-12-04T22:34:45.067Z,12.10
2022-12-04T22:37:12.086Z,11.48
2022-12-04T22:39:39.163Z,11.63
2022-12-04T22:42:06.313Z,11.63
2022-12-04T22:44:33.327Z,11.43
2022-12-04T22:47:00.328Z,12.55
2022-12-04T22:49:27.331Z,10.93
2022-12-04T22:51:54.373Z,12.05
2022-12-04T22:54:21.445Z,12.00
2022-12-04T22:56:48.565Z,11.18
2022-12-04T22:59:15.565Z,11.82
2022-12-04T23:01:42.753Z,11.23
2022-12-04T23:04:10.192Z,10.27
2022-12-04T23:06:37.217Z,11.05
2022-12-04T23:09:07.813Z,10.05
2022-12-04T23:11:36.082Z,10.88
2022-12-04T23:14:05.053Z,10.93
2022-12-04T23:16:35.219Z,10.80
2022-12-04T23:19:02.600Z,11.07
2022-12-04T23:21:29.616Z,11.65
2022-12-04T23:23:57.090Z,10.32
2022-12-04T23:26:29.256Z,11.27
2022-12-04T23:28:56.534Z,12.48
2022-12-04T23:31:23.701Z,12.00
2022-12-04T23:33:50.897Z,12.63
2022-12-04T23:36:18.369Z,12.38
2022-12-04T23:38:46.018Z,12.18
2022-12-04T23:41:19.136Z,12.77
2022-12-04T23:43:47.306Z,12.35
2022-12-04T23:46:16.488Z,12.85
2022-12-04T23:48:44.604Z,12.23
2022-12-04T23:51:14.365Z,12.95
2022-12-04T23:53:41.718Z,12.32
2022-12-04T23:56:14.513Z,12.57
2022-12-04T23:58:42.489Z,13.43
